Track Демидов Кирилл

Time Latitude Longitude Accuracy (66% radius in meters) Altitude (meters) Speed (km/hour) Bearing (degrees) Battery (%) GPS flag
09:16:09 56.387662 43.737199 5 93.800003051758 0 0 54 1 delete
09:13:00 56.387662 43.737202 7 93.800003051758 0 0 54 1 delete
09:09:50 56.387661 43.737205 8 93.699996948242 0 0 54 1 delete
09:06:40 56.387660 43.737208 7 93.699996948242 0 0 68 1 delete
09:03:30 56.387658 43.737214 6 93.800003051758 0 0 68 1 delete
09:00:22 56.387656 43.737225 8 93 0 0 68 1 delete
08:57:11 56.387653 43.737239 17 93.300003051758 0 0 68 1 delete
08:57:00 56.387654 43.737240 21 93.300003051758 0 0 68 1 delete
08:56:49 56.387654 43.737240 16 93.300003051758 0 0 68 1 delete
08:56:38 56.387653 43.737240 9 93.300003051758 0 0 68 1 delete
08:56:27 56.387653 43.737239 10 93.300003051758 0 0 68 1 delete
08:56:17 56.387653 43.737239 11 93.300003051758 0 0 68 1 delete
08:55:30 56.387651 43.737234 10 93.5 0 0 68 1 delete
08:55:19 56.387651 43.737235 10 93.400001525879 0 0 68 1 delete
08:55:09 56.387654 43.737238 14 93.300003051758 0 0 68 1 delete
08:54:58 56.387688 43.737302 8 93 0.25 92.099998474121 68 1 delete
08:54:48 56.387703 43.737293 11 93.300003051758 0 0 68 1 delete
08:54:37 56.387703 43.737293 11 93.300003051758 0 0 68 1 delete
08:54:27 56.387703 43.737293 8 93.300003051758 0 0 68 1 delete
08:54:16 56.387704 43.737294 10 93.199996948242 0 0 68 1 delete
08:54:04 56.387704 43.737295 12 93.199996948242 0 0 68 1 delete
08:53:54 56.387716 43.737302 9 93.300003051758 0 0 68 1 delete
08:53:44 56.387702 43.737305 8 93.199996948242 0 0 68 1 delete
08:53:33 56.387708 43.737315 7 93.400001525879 0 0 68 1 delete
08:53:22 56.387721 43.737257 10 95 0.25 69.900001525879 68 1 delete
08:53:11 56.387718 43.737253 10 94.900001525879 0 0 68 1 delete
08:53:01 56.387717 43.737248 14 95.099998474121 0 0 68 1 delete
08:52:50 56.387711 43.737242 10 94.800003051758 0 0 68 1 delete
08:52:39 56.387729 43.737257 8 93.800003051758 0.25 240.39999389648 68 1 delete
08:52:29 56.387744 43.737240 8 92.699996948242 0.25 342.39999389648 68 1 delete
08:52:27 56.387736 43.737250 9 92.699996948242 0.5 3.5999999046326 68 1 delete
08:52:17 56.387643 43.737271 13 72.800003051758 0 0 68 1 delete
08:52:07 56.387643 43.737278 11 72.300003051758 0 0 68 1 delete
08:51:57 56.387643 43.737279 22 72.199996948242 0 0 68 1 delete
08:51:46 56.387643 43.737280 35 72.199996948242 0 0 68 1 delete
08:51:35 56.387643 43.737281 28 72.099998474121 0 0 68 1 delete
08:51:24 56.387643 43.737284 23 72 0 0 68 1 delete
08:51:13 56.387643 43.737289 21 71.699996948242 0 0 68 1 delete
08:51:03 56.387643 43.737289 24 71.5 0 0 68 1 delete
09:50:53 56.387640 43.737263 17 70.699996948242 0 0 68 0 delete
08:50:39 56.387643 43.737289 36 71.699996948242 0 0 68 1 delete
08:50:31 56.387643 43.737286 25 71.900001525879 0 0 68 1 delete
08:50:20 56.387644 43.737281 29 72.300003051758 0 0 68 1 delete
08:50:09 56.387645 43.737272 25 72.800003051758 0 0 68 1 delete
08:49:58 56.387644 43.737279 26 72.5 0 0 68 1 delete
08:49:47 56.387643 43.737287 25 72.099998474121 0 0 68 1 delete
08:49:36 56.387642 43.737297 25 71.599998474121 0 0 68 1 delete
08:49:25 56.387641 43.737308 16 71.099998474121 0 0 68 1 delete
08:49:15 56.387641 43.737258 16 71.5 0 0 68 1 delete
08:49:06 56.387640 43.737263 17 70.699996948242 0 0 68 1 delete